Time;durP1;ratioP1;P1;durP2;ratioP2;P2;SDS_P1;SDS_P2;PMS_P1;PMS_P2;Temp;Humidity;BMP_temperature;BMP_pressure;BME280_temperature;BME280_humidity;BME280_pressure;Samples;Min_cycle;Max_cycle;Signal;HPM_P1;HPM_P2
2021/12/25 00:01:12;;;;;;;;;38.75;33.75;;;;;;;;5025142;28;46326;-68
2021/12/25 00:03:38;;;;;;;;;41.50;34.50;;;;;;;;5024005;28;45339;-66
2021/12/25 00:06:03;;;;;;;;;40.00;35.75;;;;;;;;5024983;28;45472;-67
2021/12/25 00:08:29;;;;;;;;;47.00;35.50;;;;;;;;5024461;28;45427;-68
2021/12/25 00:10:56;;;;;;;;;36.25;34.00;;;;;;;;5024782;28;46421;-68
2021/12/25 00:13:21;;;;;;;;;40.25;34.25;;;;;;;;5024072;28;45379;-67
2021/12/25 00:15:47;;;;;;;;;53.50;40.00;;;;;;;;5005864;28;45308;-68
2021/12/25 00:18:12;;;;;;;;;41.00;34.50;;;;;;;;5024520;28;45367;-67
2021/12/25 00:20:38;;;;;;;;;35.67;30.67;;;;;;;;5023450;28;47357;-68
2021/12/25 00:23:05;;;;;;;;;36.33;31.33;;;;;;;;5023904;28;45408;-68
2021/12/25 00:25:34;;;;;;;;;25.33;20.33;;;;;;;;5023350;28;45266;-68
2021/12/25 00:31:05;;;;;;;;;25.67;22.67;;;;;;;;4987036;28;45661;-68
2021/12/25 00:33:47;;;;;;;;;31.00;23.67;;;;;;;;5023853;28;45557;-68
2021/12/25 00:36:13;;;;;;;;;28.00;25.67;;;;;;;;5024675;28;45464;-68
2021/12/25 00:38:41;;;;;;;;;31.33;26.33;;;;;;;;5004095;28;45583;-68
2021/12/25 00:41:07;;;;;;;;;27.67;25.67;;;;;;;;5024176;28;45398;-68
2021/12/25 00:43:32;;;;;;;;;30.00;27.33;;;;;;;;5023635;28;45416;-68
2021/12/25 00:45:57;;;;;;;;;30.67;28.33;;;;;;;;5023096;28;45502;-68
2021/12/25 00:48:22;;;;;;;;;30.67;26.67;;;;;;;;5024286;28;45264;-68
2021/12/25 00:50:48;;;;;;;;;31.33;28.33;;;;;;;;5024221;28;45417;-68
2021/12/25 00:53:13;;;;;;;;;33.00;30.00;;;;;;;;5023436;28;45474;-68
2021/12/25 00:55:38;;;;;;;;;35.25;29.75;;;;;;;;5024130;28;45383;-68
2021/12/25 00:58:03;;;;;;;;;32.00;28.33;;;;;;;;5004942;28;45169;-68
2021/12/25 01:00:29;;;;;;;;;33.75;30.00;;;;;;;;5024104;28;45442;-68
2021/12/25 01:02:54;;;;;;;;;33.67;30.67;;;;;;;;5023431;28;45439;-68
2021/12/25 01:05:19;;;;;;;;;30.67;29.00;;;;;;;;5024071;28;45366;-68
2021/12/25 01:07:45;;;;;;;;;33.67;28.33;;;;;;;;5023661;28;45648;-68
2021/12/25 01:10:14;;;;;;;;;36.00;31.00;;;;;;;;5023520;28;46730;-68
2021/12/25 01:15:33;;;;;;;;;33.25;27.50;;;;;;;;5022828;28;45846;-68
2021/12/25 01:26:02;;;;;;;;;37.50;34.25;;;;;;;;5023581;28;45384;-68
2021/12/25 01:31:12;;;;;;;;;35.25;31.25;;;;;;;;5023736;28;46235;-68
2021/12/25 01:38:57;;;;;;;;;39.75;34.00;;;;;;;;5023233;28;45388;-67
2021/12/25 01:49:24;;;;;;;;;33.00;28.00;;;;;;;;5023074;28;45233;-69
2021/12/25 01:51:49;;;;;;;;;36.00;30.67;;;;;;;;5023304;28;45481;-68
2021/12/25 01:54:14;;;;;;;;;34.00;29.75;;;;;;;;5022646;28;45418;-69
2021/12/25 01:56:39;;;;;;;;;35.33;31.67;;;;;;;;5023327;28;45497;-69
2021/12/25 01:59:05;;;;;;;;;40.25;35.00;;;;;;;;5022993;28;45155;-69
2021/12/25 02:01:30;;;;;;;;;35.25;34.50;;;;;;;;5023306;28;46482;-69
2021/12/25 02:03:55;;;;;;;;;43.25;37.00;;;;;;;;5021842;28;45497;-68
2021/12/25 02:06:20;;;;;;;;;36.00;31.50;;;;;;;;5005346;28;45352;-69
2021/12/25 02:08:46;;;;;;;;;35.25;32.00;;;;;;;;5000436;28;45500;-69
2021/12/25 02:11:12;;;;;;;;;46.75;36.25;;;;;;;;5023055;28;45364;-68
2021/12/25 02:13:41;;;;;;;;;37.25;33.00;;;;;;;;5022222;28;45219;-69
2021/12/25 02:16:12;;;;;;;;;31.75;29.75;;;;;;;;5021997;28;45359;-69
2021/12/25 02:21:26;;;;;;;;;30.33;27.00;;;;;;;;5022979;28;45225;-70
2021/12/25 02:23:51;;;;;;;;;36.00;33.25;;;;;;;;5021929;28;45346;-68
2021/12/25 02:26:21;;;;;;;;;16.00;15.00;;;;;;;;5003672;28;45340;-68
2021/12/25 02:28:47;;;;;;;;;16.67;13.33;;;;;;;;5021799;28;45401;-69
2021/12/25 02:31:13;;;;;;;;;19.67;11.00;;;;;;;;5022815;28;45318;-68
2021/12/25 02:33:39;;;;;;;;;18.67;15.00;;;;;;;;4999433;28;45309;-68
2021/12/25 02:36:07;;;;;;;;;17.67;13.00;;;;;;;;5022900;28;45624;-68
2021/12/25 02:38:33;;;;;;;;;12.67;10.33;;;;;;;;5022639;28;45427;-68
2021/12/25 02:40:58;;;;;;;;;13.00;11.33;;;;;;;;5022457;28;45458;-68
2021/12/25 02:43:23;;;;;;;;;13.67;13.33;;;;;;;;5022251;28;45389;-68
2021/12/25 02:45:49;;;;;;;;;13.67;13.67;;;;;;;;5022810;28;45544;-68
2021/12/25 02:48:17;;;;;;;;;16.33;14.00;;;;;;;;5022601;28;45198;-68
2021/12/25 02:50:43;;;;;;;;;14.33;14.33;;;;;;;;5022623;28;45232;-68
2021/12/25 02:53:09;;;;;;;;;18.67;13.67;;;;;;;;5021926;28;45344;-68
2021/12/25 02:55:36;;;;;;;;;14.67;11.67;;;;;;;;5022616;28;45497;-67
2021/12/25 02:58:01;;;;;;;;;10.33;9.33;;;;;;;;5004438;28;45501;-68
2021/12/25 03:00:28;;;;;;;;;17.00;12.00;;;;;;;;5003957;28;46960;-68
2021/12/25 03:02:54;;;;;;;;;20.67;13.67;;;;;;;;5021908;28;45257;-68
2021/12/25 03:05:19;;;;;;;;;20.00;15.33;;;;;;;;5022529;28;45281;-68
2021/12/25 03:07:45;;;;;;;;;17.00;14.33;;;;;;;;5004330;28;45547;-68
2021/12/25 03:10:11;;;;;;;;;17.00;10.00;;;;;;;;5022086;28;46004;-68
2021/12/25 03:12:48;;;;;;;;;13.67;11.67;;;;;;;;5003972;28;45573;-68
2021/12/25 03:15:17;;;;;;;;;12.00;8.67;;;;;;;;5004223;28;45368;-69
2021/12/25 03:17:42;;;;;;;;;17.33;16.33;;;;;;;;5025465;28;45260;-68
2021/12/25 03:20:09;;;;;;;;;16.67;15.67;;;;;;;;5025575;28;45414;-68
2021/12/25 03:22:35;;;;;;;;;17.00;17.00;;;;;;;;5025239;28;45545;-68
2021/12/25 03:25:00;;;;;;;;;16.67;10.33;;;;;;;;5003996;28;45778;-68
2021/12/25 03:27:26;;;;;;;;;18.33;13.33;;;;;;;;5016788;28;45336;-68
2021/12/25 03:29:51;;;;;;;;;14.00;14.00;;;;;;;;5025359;28;46594;-69
2021/12/25 03:32:16;;;;;;;;;16.00;14.33;;;;;;;;5025915;28;45228;-68
2021/12/25 03:34:42;;;;;;;;;12.33;12.33;;;;;;;;5025078;28;45229;-68
2021/12/25 03:37:07;;;;;;;;;18.00;15.33;;;;;;;;5026412;28;45439;-68
2021/12/25 03:39:32;;;;;;;;;18.33;17.67;;;;;;;;5024554;28;45502;-68
2021/12/25 03:41:58;;;;;;;;;19.33;13.33;;;;;;;;5025438;28;45268;-68
2021/12/25 03:44:24;;;;;;;;;16.00;12.00;;;;;;;;5024789;28;45395;-68
2021/12/25 03:46:50;;;;;;;;;12.67;12.00;;;;;;;;5026096;28;45375;-68
2021/12/25 03:53:04;;;;;;;;;14.67;14.67;;;;;;;;5024360;28;45279;-68
2021/12/25 03:57:49;;;;;;;;;15.33;15.00;;;;;;;;5025021;28;45331;-69
2021/12/25 04:00:15;;;;;;;;;11.33;11.33;;;;;;;;5021921;28;47429;-68
2021/12/25 04:02:53;;;;;;;;;17.00;13.00;;;;;;;;5024640;28;46177;-68
2021/12/25 04:05:23;;;;;;;;;15.33;13.00;;;;;;;;5025099;28;45396;-68
2021/12/25 04:08:01;;;;;;;;;14.33;13.67;;;;;;;;5007047;28;45486;-68
2021/12/25 04:10:27;;;;;;;;;14.67;12.00;;;;;;;;5023430;28;47344;-68
2021/12/25 04:12:53;;;;;;;;;14.33;13.33;;;;;;;;5006503;28;45380;-68
2021/12/25 04:15:18;;;;;;;;;21.67;16.67;;;;;;;;5025035;28;45398;-66
2021/12/25 04:17:44;;;;;;;;;17.00;16.00;;;;;;;;5024802;28;45220;-66
2021/12/25 04:20:09;;;;;;;;;16.33;13.33;;;;;;;;5023397;28;47062;-66
2021/12/25 04:22:45;;;;;;;;;19.00;19.00;;;;;;;;5021641;28;45225;-66
2021/12/25 04:25:11;;;;;;;;;18.33;17.00;;;;;;;;5024191;28;45318;-66
2021/12/25 04:27:38;;;;;;;;;22.33;17.33;;;;;;;;5021983;28;45181;-68
2021/12/25 04:30:17;;;;;;;;;14.67;14.33;;;;;;;;5003425;28;47215;-68
2021/12/25 05:03:10;;;;;;;;;25.67;20.33;;;;;;;;5023296;28;45694;-67
2021/12/25 05:05:36;;;;;;;;;22.67;20.00;;;;;;;;5024066;28;45479;-68
2021/12/25 05:08:02;;;;;;;;;22.33;18.00;;;;;;;;5023199;28;45497;-67
2021/12/25 05:10:27;;;;;;;;;25.00;21.67;;;;;;;;5024175;28;45614;-67
2021/12/25 05:12:52;;;;;;;;;20.33;17.00;;;;;;;;5023397;28;45696;-67
2021/12/25 05:15:17;;;;;;;;;22.67;21.00;;;;;;;;5018197;28;45308;-67
2021/12/25 05:17:42;;;;;;;;;26.00;22.33;;;;;;;;5023379;28;45374;-67
2021/12/25 05:20:08;;;;;;;;;24.00;18.00;;;;;;;;5024259;28;45221;-67
2021/12/25 05:22:33;;;;;;;;;16.00;14.67;;;;;;;;5023095;28;45964;-67
2021/12/25 05:24:58;;;;;;;;;22.33;18.33;;;;;;;;5023285;28;45399;-67
2021/12/25 05:27:24;;;;;;;;;22.33;19.67;;;;;;;;5024042;28;45301;-67
2021/12/25 05:29:49;;;;;;;;;20.33;19.67;;;;;;;;5023341;28;45662;-67
2021/12/25 05:32:16;;;;;;;;;25.00;21.33;;;;;;;;5023951;28;46150;-67
2021/12/25 05:34:41;;;;;;;;;26.33;21.67;;;;;;;;5022788;28;45419;-67
2021/12/25 05:37:07;;;;;;;;;30.00;18.67;;;;;;;;5023941;28;45251;-67
2021/12/25 05:39:33;;;;;;;;;21.33;20.33;;;;;;;;5022205;28;45449;-67
2021/12/25 05:41:59;;;;;;;;;25.33;21.33;;;;;;;;5023340;28;46106;-67
2021/12/25 05:44:25;;;;;;;;;30.00;23.33;;;;;;;;5022778;28;45381;-67
2021/12/25 05:46:50;;;;;;;;;37.33;28.67;;;;;;;;5005736;28;45542;-67
2021/12/25 05:49:15;;;;;;;;;22.67;19.33;;;;;;;;5023018;28;45360;-67
2021/12/25 05:51:40;;;;;;;;;30.67;27.00;;;;;;;;5023412;28;45624;-67
2021/12/25 05:54:05;;;;;;;;;21.00;14.00;;;;;;;;5004735;28;45498;-67
2021/12/25 05:56:31;;;;;;;;;23.00;20.67;;;;;;;;5023448;28;45501;-67
2021/12/25 05:58:56;;;;;;;;;22.33;21.00;;;;;;;;5022960;28;45252;-67
2021/12/25 06:01:21;;;;;;;;;23.67;19.00;;;;;;;;5023412;28;45490;-67
2021/12/25 06:03:47;;;;;;;;;23.67;22.33;;;;;;;;5022451;28;45287;-67
2021/12/25 06:06:12;;;;;;;;;41.33;30.00;;;;;;;;5023181;28;45386;-67
2021/12/25 06:08:37;;;;;;;;;24.33;21.00;;;;;;;;5001587;28;45552;-68
2021/12/25 06:11:03;;;;;;;;;22.00;17.67;;;;;;;;5023042;28;45497;-67
2021/12/25 06:13:28;;;;;;;;;23.33;23.33;;;;;;;;5022350;28;45439;-67
2021/12/25 06:15:53;;;;;;;;;12.00;10.00;;;;;;;;5023455;28;45297;-67
2021/12/25 06:18:19;;;;;;;;;22.67;17.00;;;;;;;;5022776;28;45370;-67
2021/12/25 06:20:44;;;;;;;;;21.67;18.00;;;;;;;;5021802;28;45651;-67
2021/12/25 06:23:09;;;;;;;;;23.33;21.00;;;;;;;;5022047;28;45540;-67
2021/12/25 06:25:34;;;;;;;;;28.33;20.00;;;;;;;;5013067;28;45554;-67
2021/12/25 06:27:59;;;;;;;;;28.00;21.67;;;;;;;;5018471;28;45572;-68
2021/12/25 06:30:25;;;;;;;;;16.33;16.33;;;;;;;;5005222;28;47269;-67
2021/12/25 06:32:50;;;;;;;;;19.67;18.00;;;;;;;;5022208;28;45399;-67
2021/12/25 06:35:16;;;;;;;;;24.00;18.67;;;;;;;;5021514;28;45403;-67
2021/12/25 06:37:44;;;;;;;;;26.33;21.33;;;;;;;;5022444;28;45921;-67
2021/12/25 06:40:11;;;;;;;;;27.33;21.67;;;;;;;;5019565;28;45532;-67
2021/12/25 06:42:36;;;;;;;;;24.00;20.33;;;;;;;;5004057;28;45288;-67
2021/12/25 06:45:02;;;;;;;;;22.33;19.33;;;;;;;;5022651;28;45260;-67
2021/12/25 06:47:27;;;;;;;;;23.67;20.00;;;;;;;;5022766;28;45490;-67
2021/12/25 06:49:52;;;;;;;;;24.33;21.00;;;;;;;;5022115;28;46692;-67
2021/12/25 06:52:17;;;;;;;;;26.33;18.67;;;;;;;;5026209;28;45220;-67
2021/12/25 06:54:43;;;;;;;;;25.67;18.67;;;;;;;;5024899;28;45458;-67
2021/12/25 06:57:09;;;;;;;;;20.00;18.00;;;;;;;;5025475;28;45657;-67
2021/12/25 06:59:34;;;;;;;;;25.00;21.67;;;;;;;;5025230;28;45508;-67
2021/12/25 07:01:59;;;;;;;;;17.33;15.33;;;;;;;;5022378;28;45416;-67
2021/12/25 07:04:24;;;;;;;;;16.00;16.00;;;;;;;;5025370;28;45363;-67
2021/12/25 07:06:50;;;;;;;;;18.00;17.67;;;;;;;;5026500;28;45301;-67
2021/12/25 07:09:15;;;;;;;;;17.67;16.00;;;;;;;;5025290;28;45681;-67
2021/12/25 07:11:42;;;;;;;;;26.00;26.00;;;;;;;;5025546;28;45311;-67
2021/12/25 07:14:09;;;;;;;;;22.67;22.33;;;;;;;;5025098;28;45333;-67
2021/12/25 07:16:34;;;;;;;;;23.67;21.67;;;;;;;;5024715;28;45324;-67
2021/12/25 07:18:59;;;;;;;;;22.67;21.67;;;;;;;;5001607;28;46910;-67
2021/12/25 07:21:25;;;;;;;;;28.00;20.67;;;;;;;;5018538;28;45515;-67
2021/12/25 07:23:50;;;;;;;;;23.33;17.33;;;;;;;;5024447;28;45398;-67
2021/12/25 07:26:17;;;;;;;;;20.00;20.00;;;;;;;;5025672;28;45233;-67
2021/12/25 07:28:43;;;;;;;;;19.00;18.00;;;;;;;;5024468;28;45347;-67
2021/12/25 07:31:08;;;;;;;;;29.67;20.67;;;;;;;;5024098;28;45522;-67
2021/12/25 07:33:36;;;;;;;;;20.00;19.33;;;;;;;;5024713;28;45320;-67
2021/12/25 07:36:02;;;;;;;;;27.67;22.00;;;;;;;;5025952;28;45351;-67
2021/12/25 07:38:27;;;;;;;;;27.67;24.00;;;;;;;;5001477;28;47391;-67
2021/12/25 07:40:52;;;;;;;;;20.00;20.00;;;;;;;;5006833;28;45467;-67
2021/12/25 07:43:18;;;;;;;;;28.33;22.67;;;;;;;;5023576;28;45811;-67
2021/12/25 07:45:47;;;;;;;;;24.67;20.33;;;;;;;;5025729;28;45563;-67
2021/12/25 07:48:12;;;;;;;;;22.33;19.00;;;;;;;;5005341;28;47429;-69
2021/12/25 07:50:38;;;;;;;;;19.00;19.00;;;;;;;;5023857;28;45365;-67
2021/12/25 07:53:03;;;;;;;;;26.33;21.33;;;;;;;;5024787;28;48079;-67
2021/12/25 07:55:30;;;;;;;;;20.33;19.33;;;;;;;;5025487;28;45202;-69
2021/12/25 07:57:56;;;;;;;;;23.67;21.67;;;;;;;;5024439;28;45708;-67
2021/12/25 08:00:21;;;;;;;;;29.00;22.67;;;;;;;;5022411;28;45452;-67
2021/12/25 08:02:46;;;;;;;;;27.00;21.33;;;;;;;;5023741;28;45280;-67
2021/12/25 08:05:12;;;;;;;;;28.33;24.00;;;;;;;;5025389;28;45551;-67
2021/12/25 08:07:37;;;;;;;;;26.00;22.00;;;;;;;;5024336;28;45525;-67
2021/12/25 08:10:20;;;;;;;;;25.33;24.00;;;;;;;;5024555;28;45364;-67
2021/12/25 08:12:49;;;;;;;;;29.67;21.67;;;;;;;;5024290;28;45403;-67
2021/12/25 08:15:16;;;;;;;;;29.33;26.33;;;;;;;;5023910;28;45397;-67
2021/12/25 08:17:41;;;;;;;;;28.67;23.33;;;;;;;;5023959;28;46516;-67
2021/12/25 08:20:07;;;;;;;;;27.33;23.33;;;;;;;;5024638;28;45419;-67
2021/12/25 08:22:32;;;;;;;;;23.67;23.67;;;;;;;;5022090;28;45229;-67
2021/12/25 08:24:57;;;;;;;;;19.00;19.00;;;;;;;;5024590;28;45272;-67
2021/12/25 08:27:23;;;;;;;;;36.33;27.33;;;;;;;;5023380;28;48180;-67
2021/12/25 08:29:48;;;;;;;;;23.33;19.00;;;;;;;;5006631;28;45279;-67
2021/12/25 08:32:13;;;;;;;;;23.00;21.00;;;;;;;;5023750;28;45311;-67
2021/12/25 08:34:40;;;;;;;;;18.00;13.33;;;;;;;;5024229;28;45431;-67
2021/12/25 08:37:06;;;;;;;;;22.00;20.00;;;;;;;;5024690;28;45434;-67
2021/12/25 08:39:31;;;;;;;;;24.00;20.33;;;;;;;;5023558;28;45366;-67
2021/12/25 08:42:02;;;;;;;;;22.67;20.00;;;;;;;;5024731;28;45335;-67
2021/12/25 08:44:36;;;;;;;;;26.33;21.33;;;;;;;;5024123;28;45415;-67
2021/12/25 08:47:04;;;;;;;;;28.00;23.00;;;;;;;;5006462;28;46642;-67
2021/12/25 08:49:30;;;;;;;;;24.33;16.33;;;;;;;;5002228;28;45393;-67
2021/12/25 08:51:57;;;;;;;;;21.67;18.00;;;;;;;;5005883;28;45515;-67
2021/12/25 08:54:22;;;;;;;;;19.67;17.67;;;;;;;;5002568;28;45470;-67
2021/12/25 08:56:48;;;;;;;;;25.67;21.33;;;;;;;;5021956;28;46175;-67
2021/12/25 08:59:13;;;;;;;;;29.33;23.00;;;;;;;;5023214;28;45341;-67
2021/12/25 09:01:38;;;;;;;;;19.67;18.33;;;;;;;;5023074;28;45387;-67
2021/12/25 09:04:04;;;;;;;;;27.33;21.67;;;;;;;;5023722;28;45303;-68
2021/12/25 09:06:29;;;;;;;;;22.33;17.33;;;;;;;;5023753;28;45976;-68
2021/12/25 09:08:55;;;;;;;;;26.67;24.33;;;;;;;;5002336;28;45683;-67
2021/12/25 09:11:21;;;;;;;;;23.33;19.00;;;;;;;;5024080;28;45980;-67
2021/12/25 09:13:47;;;;;;;;;19.00;16.33;;;;;;;;5023455;28;45333;-67
2021/12/25 09:16:12;;;;;;;;;25.00;22.67;;;;;;;;5022365;28;47204;-67
2021/12/25 09:18:37;;;;;;;;;21.33;19.00;;;;;;;;5022829;28;45399;-67
2021/12/25 09:21:03;;;;;;;;;22.00;19.67;;;;;;;;5024144;28;45383;-67
2021/12/25 09:23:28;;;;;;;;;19.33;19.33;;;;;;;;5023285;28;45321;-69
2021/12/25 09:25:53;;;;;;;;;24.33;19.33;;;;;;;;5023409;28;45471;-67
2021/12/25 09:28:18;;;;;;;;;28.00;21.00;;;;;;;;5022730;28;45489;-68
2021/12/25 09:30:44;;;;;;;;;25.33;20.00;;;;;;;;5023926;28;45395;-67
2021/12/25 09:33:09;;;;;;;;;24.33;20.33;;;;;;;;5023456;28;48284;-67
2021/12/25 09:35:34;;;;;;;;;26.33;22.33;;;;;;;;5023585;28;45428;-67
2021/12/25 09:38:00;;;;;;;;;24.00;20.00;;;;;;;;5021472;28;45384;-67
2021/12/25 09:40:25;;;;;;;;;18.00;16.00;;;;;;;;5023383;28;45759;-67
2021/12/25 09:42:50;;;;;;;;;26.67;22.00;;;;;;;;5021885;28;45498;-67
2021/12/25 09:45:16;;;;;;;;;21.67;20.00;;;;;;;;5023155;28;46549;-67
2021/12/25 09:47:41;;;;;;;;;17.67;17.67;;;;;;;;5022696;28;45585;-68
2021/12/25 09:50:07;;;;;;;;;27.33;23.00;;;;;;;;5023095;28;45358;-67
2021/12/25 09:52:32;;;;;;;;;25.67;24.33;;;;;;;;5023280;28;45320;-68
2021/12/25 09:54:58;;;;;;;;;23.67;22.67;;;;;;;;5022462;28;45260;-67
2021/12/25 09:57:23;;;;;;;;;26.00;21.33;;;;;;;;5023324;28;45409;-67
2021/12/25 09:59:48;;;;;;;;;31.00;28.67;;;;;;;;5022358;28;45328;-67
2021/12/25 10:02:14;;;;;;;;;23.33;21.00;;;;;;;;5023650;28;45383;-67
2021/12/25 10:04:41;;;;;;;;;22.67;18.00;;;;;;;;5022003;28;45345;-67
2021/12/25 10:07:27;;;;;;;;;22.33;21.33;;;;;;;;5023229;28;45359;-67
2021/12/25 10:10:13;;;;;;;;;18.00;17.67;;;;;;;;5021899;28;45296;-67
2021/12/25 10:12:49;;;;;;;;;29.00;24.67;;;;;;;;5004568;28;45645;-67
2021/12/25 10:15:25;;;;;;;;;25.67;21.33;;;;;;;;5020913;28;45283;-67
2021/12/25 10:17:54;;;;;;;;;25.00;20.67;;;;;;;;5022158;28;45371;-67
2021/12/25 10:20:20;;;;;;;;;24.33;20.00;;;;;;;;5018282;28;45293;-67
2021/12/25 10:23:11;;;;;;;;;33.33;24.33;;;;;;;;5022378;28;45486;-68
2021/12/25 10:25:49;;;;;;;;;28.67;23.33;;;;;;;;5018777;28;45382;-67
2021/12/25 10:28:16;;;;;;;;;24.00;20.67;;;;;;;;5021907;28;45501;-67
2021/12/25 10:30:47;;;;;;;;;25.33;21.00;;;;;;;;5022957;28;45322;-68
2021/12/25 10:33:27;;;;;;;;;20.00;17.67;;;;;;;;5021328;28;45602;-67
2021/12/25 10:35:53;;;;;;;;;26.00;24.00;;;;;;;;5011412;28;48829;-69
2021/12/25 10:38:21;;;;;;;;;23.33;21.33;;;;;;;;5020756;28;45784;-67
2021/12/25 10:40:47;;;;;;;;;22.00;20.00;;;;;;;;5022410;28;45513;-68
2021/12/25 10:43:20;;;;;;;;;24.00;21.67;;;;;;;;5022173;28;45470;-67
2021/12/25 10:45:57;;;;;;;;;24.00;21.00;;;;;;;;5022186;28;46439;-67
2021/12/25 10:48:26;;;;;;;;;26.67;24.00;;;;;;;;5002508;28;45960;-68
2021/12/25 10:50:51;;;;;;;;;23.33;20.33;;;;;;;;5022351;28;45375;-68
2021/12/25 10:53:23;;;;;;;;;11.67;11.67;;;;;;;;5004217;28;45521;-68
2021/12/25 10:55:49;;;;;;;;;20.33;20.33;;;;;;;;5021790;28;45736;-68
2021/12/25 10:58:22;;;;;;;;;24.67;19.00;;;;;;;;5020737;28;45268;-67
2021/12/25 11:00:49;;;;;;;;;20.33;20.00;;;;;;;;5022107;28;45343;-67
2021/12/25 11:03:15;;;;;;;;;22.33;16.00;;;;;;;;5021832;28;45247;-67
2021/12/25 11:05:45;;;;;;;;;14.33;14.33;;;;;;;;5021787;28;45446;-67
2021/12/25 11:08:19;;;;;;;;;17.33;16.67;;;;;;;;5020973;28;45450;-67
2021/12/25 11:10:47;;;;;;;;;16.67;15.67;;;;;;;;5019904;28;45403;-67
2021/12/25 11:13:15;;;;;;;;;15.33;14.67;;;;;;;;5021870;28;45517;-67
2021/12/25 11:15:41;;;;;;;;;23.67;22.00;;;;;;;;5022124;28;45666;-67
2021/12/25 11:18:07;;;;;;;;;18.33;15.67;;;;;;;;5020393;28;45335;-67
2021/12/25 11:20:35;;;;;;;;;20.67;16.00;;;;;;;;5021493;28;45213;-67
2021/12/25 11:23:02;;;;;;;;;28.33;23.67;;;;;;;;5021001;28;45581;-67
2021/12/25 11:25:29;;;;;;;;;24.00;20.00;;;;;;;;5021332;28;45355;-67
2021/12/25 11:27:55;;;;;;;;;22.67;19.67;;;;;;;;5020940;28;45474;-67
2021/12/25 11:30:21;;;;;;;;;23.33;19.33;;;;;;;;5020449;28;45391;-67
2021/12/25 11:32:47;;;;;;;;;23.33;18.00;;;;;;;;5021994;28;45324;-67
2021/12/25 11:35:15;;;;;;;;;21.67;19.67;;;;;;;;5019818;28;45364;-67
2021/12/25 11:37:40;;;;;;;;;21.67;17.00;;;;;;;;5022219;28;45339;-67
2021/12/25 11:40:07;;;;;;;;;16.67;16.33;;;;;;;;5025190;28;45421;-67
2021/12/25 11:42:34;;;;;;;;;21.33;21.33;;;;;;;;5025364;28;45682;-69
2021/12/25 11:45:10;;;;;;;;;16.67;14.00;;;;;;;;5020791;28;47476;-67
2021/12/25 11:47:39;;;;;;;;;19.33;16.00;;;;;;;;5022232;28;45340;-67
2021/12/25 11:50:13;;;;;;;;;23.00;22.00;;;;;;;;5023215;28;45669;-67
2021/12/25 11:52:45;;;;;;;;;24.33;18.67;;;;;;;;5025041;28;45304;-67
2021/12/25 11:55:28;;;;;;;;;23.33;20.00;;;;;;;;5024533;28;47049;-67
2021/12/25 12:00:33;;;;;;;;;35.33;27.00;;;;;;;;5025145;28;45406;-67
2021/12/25 12:02:58;;;;;;;;;29.00;26.00;;;;;;;;5007035;28;45297;-67
2021/12/25 12:05:29;;;;;;;;;27.00;24.33;;;;;;;;5024808;28;46167;-67
2021/12/25 12:07:57;;;;;;;;;25.33;23.00;;;;;;;;5024062;28;45466;-68
2021/12/25 12:10:42;;;;;;;;;26.00;23.00;;;;;;;;5014598;28;45481;-67
2021/12/25 12:13:21;;;;;;;;;28.00;26.00;;;;;;;;5024236;28;45780;-67
2021/12/25 12:15:48;;;;;;;;;22.67;19.67;;;;;;;;5023133;28;48346;-67
2021/12/25 12:18:31;;;;;;;;;17.67;15.33;;;;;;;;5022458;28;45362;-67
2021/12/25 12:21:07;;;;;;;;;16.33;16.33;;;;;;;;5024896;28;45396;-67
2021/12/25 12:24:11;;;;;;;;;15.67;15.33;;;;;;;;5022905;28;46566;-67
2021/12/25 12:26:45;;;;;;;;;22.67;20.00;;;;;;;;5022245;28;46646;-67
2021/12/25 12:29:14;;;;;;;;;23.33;20.67;;;;;;;;5023610;28;45473;-67
2021/12/25 12:31:42;;;;;;;;;19.67;19.33;;;;;;;;5024606;28;45433;-67
2021/12/25 12:34:25;;;;;;;;;19.67;17.67;;;;;;;;5024298;28;45638;-69
2021/12/25 12:36:51;;;;;;;;;15.67;15.00;;;;;;;;5006694;28;47452;-69
2021/12/25 12:39:18;;;;;;;;;21.33;18.00;;;;;;;;5023281;28;45264;-69
2021/12/25 12:41:51;;;;;;;;;16.33;15.33;;;;;;;;5024669;28;45335;-69
2021/12/25 12:44:31;;;;;;;;;19.33;16.33;;;;;;;;5024115;28;45517;-69
2021/12/25 12:46:58;;;;;;;;;19.00;15.00;;;;;;;;5022949;28;47219;-69
2021/12/25 12:49:52;;;;;;;;;17.00;17.00;;;;;;;;5005164;28;45464;-67
2021/12/25 12:52:17;;;;;;;;;18.33;16.67;;;;;;;;5006631;28;45468;-68
2021/12/25 12:54:54;;;;;;;;;21.00;18.67;;;;;;;;5023502;28;45533;-67
2021/12/25 12:57:24;;;;;;;;;27.33;24.00;;;;;;;;5006516;28;48196;-67
2021/12/25 12:59:58;;;;;;;;;26.33;22.00;;;;;;;;5002021;28;45777;-67
2021/12/25 13:02:25;;;;;;;;;22.33;21.67;;;;;;;;5024619;28;45347;-67
2021/12/25 13:04:52;;;;;;;;;26.00;23.67;;;;;;;;5002692;28;45458;-68
2021/12/25 13:07:18;;;;;;;;;27.67;24.67;;;;;;;;5006145;28;47313;-68
2021/12/25 13:09:51;;;;;;;;;25.67;21.33;;;;;;;;5023206;28;45255;-69
2021/12/25 13:12:30;;;;;;;;;31.67;26.33;;;;;;;;5024365;28;45403;-68
2021/12/25 13:14:59;;;;;;;;;21.00;18.00;;;;;;;;5023377;28;45230;-68
2021/12/25 13:17:25;;;;;;;;;28.33;27.67;;;;;;;;5022927;28;45501;-68
2021/12/25 13:19:50;;;;;;;;;29.00;22.67;;;;;;;;5022969;28;45418;-68
2021/12/25 13:22:15;;;;;;;;;25.67;21.67;;;;;;;;5024183;28;46511;-68
2021/12/25 13:24:41;;;;;;;;;23.00;21.00;;;;;;;;5022882;28;45302;-67
2021/12/25 13:27:06;;;;;;;;;24.33;22.67;;;;;;;;5012486;28;45473;-68
2021/12/25 13:29:31;;;;;;;;;29.33;25.00;;;;;;;;5022943;28;45438;-68
2021/12/25 13:31:57;;;;;;;;;30.00;25.00;;;;;;;;5023928;28;45564;-67
2021/12/25 13:34:23;;;;;;;;;23.00;23.00;;;;;;;;4999918;28;45428;-68
2021/12/25 13:36:53;;;;;;;;;30.00;30.00;;;;;;;;5023546;28;45954;-67
2021/12/25 13:39:24;;;;;;;;;29.33;25.67;;;;;;;;4999114;28;45856;-69
2021/12/25 13:41:52;;;;;;;;;35.00;28.67;;;;;;;;5023702;28;45390;-67
2021/12/25 13:44:19;;;;;;;;;29.00;25.33;;;;;;;;4999609;28;45571;-66
2021/12/25 13:46:44;;;;;;;;;30.67;25.67;;;;;;;;5005319;28;47082;-67
2021/12/25 13:49:29;;;;;;;;;29.00;23.33;;;;;;;;4999033;28;45338;-68
2021/12/25 13:51:55;;;;;;;;;29.67;26.33;;;;;;;;5005699;28;45181;-67
2021/12/25 13:54:21;;;;;;;;;30.25;27.00;;;;;;;;5022613;28;45410;-67
2021/12/25 13:56:47;;;;;;;;;27.50;26.75;;;;;;;;5021930;28;47105;-68
2021/12/25 13:59:13;;;;;;;;;34.25;32.25;;;;;;;;5001246;28;45384;-68
2021/12/25 14:01:38;;;;;;;;;40.00;34.50;;;;;;;;5004600;28;45532;-67
2021/12/25 14:04:11;;;;;;;;;40.00;34.67;;;;;;;;5022830;28;45445;-68
2021/12/25 14:06:37;;;;;;;;;34.00;30.67;;;;;;;;5018746;28;46371;-68
2021/12/25 14:09:03;;;;;;;;;28.33;26.33;;;;;;;;5022436;28;45347;-67
2021/12/25 14:11:29;;;;;;;;;30.00;27.00;;;;;;;;5021903;28;45253;-67
2021/12/25 14:13:54;;;;;;;;;32.00;27.33;;;;;;;;5021448;28;48210;-68
2021/12/25 14:16:20;;;;;;;;;31.00;26.00;;;;;;;;5023091;28;46639;-68
2021/12/25 14:18:45;;;;;;;;;27.00;24.33;;;;;;;;5022227;28;45257;-67
2021/12/25 14:21:15;;;;;;;;;33.75;27.75;;;;;;;;5022204;28;45506;-68
2021/12/25 14:23:40;;;;;;;;;28.67;25.67;;;;;;;;5011749;28;45300;-68
2021/12/25 14:26:06;;;;;;;;;32.00;26.33;;;;;;;;5022410;28;46576;-67
2021/12/25 14:28:33;;;;;;;;;30.67;28.00;;;;;;;;5003484;28;45693;-67
2021/12/25 14:31:05;;;;;;;;;32.33;30.33;;;;;;;;5022849;28;45403;-68
2021/12/25 14:33:31;;;;;;;;;34.67;29.00;;;;;;;;5003433;28;45442;-68
2021/12/25 14:35:57;;;;;;;;;32.25;31.00;;;;;;;;5022510;28;46588;-68
2021/12/25 14:38:22;;;;;;;;;37.25;32.75;;;;;;;;5021935;28;45400;-68
2021/12/25 14:40:49;;;;;;;;;31.67;31.67;;;;;;;;5002582;28;45394;-68
2021/12/25 14:43:19;;;;;;;;;31.67;28.00;;;;;;;;5022508;28;45378;-68
2021/12/25 14:45:47;;;;;;;;;33.50;31.75;;;;;;;;5022357;28;46546;-68
2021/12/25 14:48:13;;;;;;;;;40.75;34.75;;;;;;;;5021792;28;45582;-68
2021/12/25 14:50:38;;;;;;;;;36.50;32.25;;;;;;;;5022585;28;45811;-68
2021/12/25 14:53:12;;;;;;;;;41.25;37.50;;;;;;;;5004477;28;45380;-68
2021/12/25 14:55:40;;;;;;;;;55.50;42.50;;;;;;;;5018631;28;45480;-68
2021/12/25 14:58:10;;;;;;;;;45.25;37.00;;;;;;;;5021655;28;45431;-68
2021/12/25 15:00:36;;;;;;;;;38.25;34.50;;;;;;;;5018555;28;45260;-68
2021/12/25 15:03:10;;;;;;;;;45.50;37.75;;;;;;;;5022104;28;45422;-68
2021/12/25 15:05:37;;;;;;;;;44.25;36.75;;;;;;;;5021225;28;45555;-68
2021/12/25 15:08:15;;;;;;;;;45.50;35.75;;;;;;;;5021229;28;45425;-68
2021/12/25 15:10:40;;;;;;;;;40.50;35.25;;;;;;;;5008988;28;45360;-68
2021/12/25 15:13:15;;;;;;;;;40.50;34.75;;;;;;;;5024827;28;45546;-69
2021/12/25 15:15:57;;;;;;;;;42.75;36.00;;;;;;;;5025972;28;46172;-68
2021/12/25 15:18:31;;;;;;;;;43.25;36.00;;;;;;;;5024704;28;45393;-69
2021/12/25 15:21:07;;;;;;;;;38.50;36.00;;;;;;;;5025910;28;45518;-70
2021/12/25 15:23:32;;;;;;;;;42.00;36.00;;;;;;;;5024664;28;45397;-69
2021/12/25 15:26:11;;;;;;;;;47.00;37.00;;;;;;;;5003834;28;48355;-68
2021/12/25 15:28:37;;;;;;;;;46.50;37.50;;;;;;;;5015220;28;45448;-68
2021/12/25 15:31:13;;;;;;;;;48.75;39.50;;;;;;;;5025671;28;45309;-68